createdAt,value
2022-11-27T00:01:00.087Z,120.50
2022-11-27T00:03:30.015Z,125.07
2022-11-27T00:05:58.950Z,124.33
2022-11-27T00:08:27.437Z,114.73
2022-11-27T00:10:55.872Z,119.67
2022-11-27T00:13:24.239Z,108.17
2022-11-27T00:15:52.799Z,106.67
2022-11-27T00:18:21.271Z,88.27
2022-11-27T00:20:50.970Z,86.23
2022-11-27T00:23:19.404Z,89.60
2022-11-27T00:25:52.034Z,88.90
2022-11-27T00:28:20.384Z,69.87
2022-11-27T00:30:49.134Z,74.70
2022-11-27T00:33:17.509Z,67.70
2022-11-27T00:35:46.194Z,68.30
2022-11-27T00:38:15.928Z,74.13
2022-11-27T00:40:45.151Z,60.90
2022-11-27T00:43:14.431Z,63.00
2022-11-27T00:45:44.688Z,72.47
2022-11-27T00:48:14.227Z,59.30
2022-11-27T00:50:42.541Z,55.30
2022-11-27T00:53:10.890Z,52.40
2022-11-27T00:55:41.015Z,50.17
2022-11-27T00:58:09.498Z,64.30
2022-11-27T01:00:37.856Z,49.63
2022-11-27T01:03:06.323Z,55.13
2022-11-27T01:05:37.257Z,50.77
2022-11-27T01:08:05.719Z,47.40
2022-11-27T01:10:34.082Z,46.43
2022-11-27T01:13:03.819Z,46.53
2022-11-27T01:15:32.122Z,42.37
2022-11-27T01:18:00.487Z,40.53
2022-11-27T01:20:28.951Z,43.63
2022-11-27T01:22:57.409Z,38.93
2022-11-27T01:25:27.178Z,42.60
2022-11-27T01:27:55.813Z,45.17
2022-11-27T01:30:25.581Z,39.50
2022-11-27T01:32:54.139Z,44.53
2022-11-27T01:35:22.602Z,37.57
2022-11-27T01:37:50.947Z,38.30
2022-11-27T01:40:19.454Z,40.33
2022-11-27T01:42:47.867Z,47.80
2022-11-27T01:45:16.964Z,34.13
2022-11-27T01:47:47.611Z,36.60
2022-11-27T01:50:17.925Z,32.37
2022-11-27T01:52:47.581Z,34.87
2022-11-27T01:55:20.475Z,29.23
2022-11-27T01:57:49.592Z,28.80
2022-11-27T02:00:18.805Z,27.60
2022-11-27T02:02:48.685Z,27.53
2022-11-27T02:05:19.031Z,24.10
2022-11-27T02:07:47.677Z,28.30
2022-11-27T02:10:16.115Z,25.13
2022-11-27T02:12:47.718Z,26.60
2022-11-27T02:15:17.138Z,24.37
2022-11-27T02:17:47.068Z,20.57
2022-11-27T02:20:20.942Z,25.40
2022-11-27T02:22:54.293Z,22.07
2022-11-27T02:25:28.105Z,22.10
2022-11-27T02:28:15.897Z,22.77
2022-11-27T02:30:45.844Z,20.00
2022-11-27T02:33:14.313Z,24.83
2022-11-27T02:35:43.718Z,18.43
2022-11-27T02:38:12.789Z,21.27
2022-11-27T02:40:42.242Z,20.00
2022-11-27T02:43:10.971Z,29.73
2022-11-27T02:45:40.655Z,16.73
2022-11-27T02:48:10.698Z,17.67
2022-11-27T02:50:39.377Z,21.23
2022-11-27T02:53:09.212Z,19.67
2022-11-27T02:55:39.106Z,18.40
2022-11-27T02:58:08.160Z,21.17
2022-11-27T03:00:36.655Z,14.50
2022-11-27T03:03:05.812Z,17.10
2022-11-27T03:05:37.696Z,16.80
2022-11-27T03:08:07.229Z,16.00
2022-11-27T03:10:37.770Z,14.53
2022-11-27T03:13:06.163Z,16.10
2022-11-27T03:15:41.697Z,15.17
2022-11-27T03:18:12.324Z,13.33
2022-11-27T03:20:42.770Z,15.70
2022-11-27T03:23:15.199Z,12.17
2022-11-27T03:25:43.718Z,10.83
2022-11-27T03:28:12.250Z,13.77
2022-11-27T03:30:42.023Z,11.50
2022-11-27T03:33:11.353Z,10.90
2022-11-27T03:35:39.776Z,11.43
2022-11-27T03:38:09.695Z,11.60
2022-11-27T03:40:39.995Z,9.00
2022-11-27T03:43:09.794Z,9.93
2022-11-27T03:45:40.538Z,8.20
2022-11-27T03:48:12.543Z,10.97
2022-11-27T03:50:44.163Z,10.73
2022-11-27T03:53:15.583Z,10.37
2022-11-27T03:55:45.495Z,7.43
2022-11-27T03:58:14.009Z,7.20
2022-11-27T04:00:43.224Z,7.67
2022-11-27T04:03:12.390Z,7.07
2022-11-27T04:05:40.857Z,9.57
2022-11-27T04:08:09.191Z,7.93
2022-11-27T04:10:39.158Z,7.60
2022-11-27T04:13:07.537Z,9.77
2022-11-27T04:15:35.921Z,7.97
2022-11-27T04:18:04.541Z,9.00
2022-11-27T04:20:34.984Z,8.90
2022-11-27T04:23:03.282Z,5.50
2022-11-27T04:25:32.015Z,5.93
2022-11-27T04:28:01.705Z,5.87
2022-11-27T04:30:31.034Z,6.43
2022-11-27T04:33:00.198Z,5.27
2022-11-27T04:35:28.707Z,7.50
2022-11-27T04:37:58.042Z,6.83
2022-11-27T04:40:26.772Z,4.63
2022-11-27T04:42:55.533Z,3.60
2022-11-27T04:45:26.255Z,5.97
2022-11-27T04:47:54.593Z,4.13
2022-11-27T04:50:23.131Z,3.63
2022-11-27T04:52:51.642Z,5.50
2022-11-27T04:55:20.006Z,4.00
2022-11-27T04:57:48.477Z,4.00
2022-11-27T05:00:17.261Z,4.50
2022-11-27T05:02:47.370Z,6.20
2022-11-27T05:05:17.195Z,3.10
2022-11-27T05:07:45.808Z,3.17
2022-11-27T05:10:14.675Z,3.60
2022-11-27T05:12:43.012Z,2.83
2022-11-27T05:15:11.497Z,2.63
2022-11-27T05:17:40.416Z,3.80
2022-11-27T05:20:11.098Z,3.40
2022-11-27T05:22:39.602Z,2.27
2022-11-27T05:25:08.490Z,4.63
2022-11-27T05:27:36.808Z,4.43
2022-11-27T05:30:05.362Z,2.20
2022-11-27T05:32:33.705Z,3.27
2022-11-27T05:35:02.172Z,2.50
2022-11-27T05:37:31.890Z,2.73
2022-11-27T05:40:00.343Z,4.13
2022-11-27T05:42:28.747Z,2.07
2022-11-27T05:44:58.632Z,2.97
2022-11-27T05:47:27.549Z,2.73
2022-11-27T05:49:56.033Z,1.87
2022-11-27T05:52:24.349Z,2.90
2022-11-27T05:54:55.010Z,1.70
2022-11-27T05:57:23.504Z,1.33
2022-11-27T05:59:52.005Z,2.70
2022-11-27T06:02:24.977Z,1.00
2022-11-27T06:04:56.709Z,1.43
2022-11-27T06:07:25.198Z,2.77
2022-11-27T06:09:55.018Z,1.83
2022-11-27T06:12:23.366Z,1.37
2022-11-27T06:14:52.095Z,2.40
2022-11-27T06:17:20.415Z,3.77
2022-11-27T06:19:48.821Z,3.10
2022-11-27T06:22:17.418Z,2.43
2022-11-27T06:24:45.901Z,1.23
2022-11-27T06:27:15.640Z,1.90
2022-11-27T06:29:43.989Z,1.57
2022-11-27T06:32:12.501Z,1.43
2022-11-27T06:34:41.164Z,4.03
2022-11-27T06:37:13.362Z,2.50
2022-11-27T06:39:42.260Z,0.93
2022-11-27T06:42:10.772Z,6.40
2022-11-27T06:44:40.854Z,1.63
2022-11-27T06:47:09.841Z,1.70
2022-11-27T06:49:38.201Z,0.63
2022-11-27T06:52:06.793Z,0.90
2022-11-27T06:54:35.156Z,1.20
2022-11-27T06:57:03.612Z,1.57
2022-11-27T06:59:32.112Z,0.70
2022-11-27T07:02:03.203Z,1.77
2022-11-27T07:04:31.783Z,1.03
2022-11-27T07:07:00.096Z,0.93
2022-11-27T07:09:28.644Z,1.47
2022-11-27T07:11:57.020Z,1.20
2022-11-27T07:14:25.424Z,1.23
2022-11-27T07:16:54.401Z,0.80
2022-11-27T07:19:24.329Z,1.87
2022-11-27T07:21:52.871Z,0.70
2022-11-27T07:24:22.152Z,0.60
2022-11-27T07:26:51.060Z,0.50
2022-11-27T07:29:19.420Z,1.67
2022-11-27T07:31:48.301Z,1.03
2022-11-27T07:34:21.482Z,2.33
2022-11-27T07:36:52.875Z,1.57
2022-11-27T07:39:39.338Z,1.13
2022-11-27T07:42:36.880Z,0.83
2022-11-27T07:44:59.111Z,1.93
2022-11-27T07:47:27.481Z,0.77
2022-11-27T07:49:58.616Z,0.83
2022-11-27T07:52:28.379Z,0.70
2022-11-27T07:54:56.719Z,1.03
2022-11-27T07:57:25.039Z,0.73
2022-11-27T07:59:53.794Z,0.50
2022-11-27T08:02:22.079Z,0.30
2022-11-27T08:04:50.802Z,1.53
2022-11-27T08:07:19.346Z,1.60
2022-11-27T08:09:49.079Z,0.40
2022-11-27T08:12:17.710Z,0.60
2022-11-27T08:14:46.114Z,1.40
2022-11-27T08:17:15.443Z,0.53
2022-11-27T08:19:43.798Z,0.40
2022-11-27T08:22:13.694Z,0.43
2022-11-27T08:24:43.352Z,3.03
2022-11-27T08:27:13.504Z,0.60
2022-11-27T08:29:42.194Z,0.73
2022-11-27T08:32:10.607Z,1.50
2022-11-27T08:34:39.826Z,2.10
2022-11-27T08:37:08.787Z,1.40
2022-11-27T08:39:37.562Z,0.83
2022-11-27T08:42:05.981Z,1.33
2022-11-27T08:44:35.742Z,1.47
2022-11-27T08:47:04.064Z,0.50
2022-11-27T08:49:32.475Z,0.70
2022-11-27T08:52:01.084Z,0.60
2022-11-27T08:54:29.730Z,1.00
2022-11-27T08:56:58.158Z,0.77
2022-11-27T08:59:26.787Z,2.33
2022-11-27T09:01:56.804Z,0.40
2022-11-27T09:04:25.529Z,0.30
2022-11-27T09:06:58.152Z,1.90
2022-11-27T09:09:27.884Z,0.33
2022-11-27T09:11:56.416Z,0.50
2022-11-27T09:14:24.774Z,0.80
2022-11-27T09:16:53.827Z,1.23
2022-11-27T09:19:23.824Z,1.70
2022-11-27T09:21:52.220Z,1.30
2022-11-27T09:24:20.661Z,0.67
2022-11-27T09:26:49.393Z,2.23
2022-11-27T09:29:17.762Z,1.03
2022-11-27T09:31:46.326Z,1.77
2022-11-27T09:34:15.519Z,0.70
2022-11-27T09:36:45.305Z,0.37
2022-11-27T09:39:15.727Z,0.50
2022-11-27T09:41:46.003Z,0.53
2022-11-27T09:44:19.913Z,0.53
2022-11-27T09:46:49.472Z,0.70
2022-11-27T09:49:20.125Z,0.73
2022-11-27T09:51:50.695Z,0.77
2022-11-27T09:54:20.202Z,0.40
2022-11-27T09:56:49.801Z,0.50
2022-11-27T09:59:18.666Z,0.50
2022-11-27T10:01:50.799Z,1.47
2022-11-27T10:04:20.146Z,1.40
2022-11-27T10:07:01.659Z,0.33
2022-11-27T10:09:31.329Z,0.63
2022-11-27T10:12:03.241Z,0.87
2022-11-27T10:14:37.989Z,0.67
2022-11-27T10:17:07.391Z,0.30
2022-11-27T10:19:38.123Z,0.70
2022-11-27T10:22:09.146Z,3.40
2022-11-27T10:24:39.901Z,0.30
2022-11-27T10:27:12.396Z,0.50
2022-11-27T10:29:47.344Z,2.13
2022-11-27T10:32:52.922Z,0.50
2022-11-27T10:35:09.375Z,1.00
2022-11-27T10:37:40.312Z,0.43
2022-11-27T10:40:09.671Z,0.93
2022-11-27T10:42:39.472Z,0.73
2022-11-27T10:45:08.729Z,1.27
2022-11-27T10:47:37.582Z,0.40
2022-11-27T10:50:06.217Z,0.30
2022-11-27T10:52:34.616Z,0.53
2022-11-27T10:55:04.913Z,1.10
2022-11-27T10:57:39.772Z,0.80
2022-11-27T11:00:11.263Z,2.50
2022-11-27T11:02:40.340Z,0.40
2022-11-27T11:08:05.245Z,0.60
2022-11-27T11:10:36.461Z,2.60
2022-11-27T11:13:05.825Z,1.87
2022-11-27T11:15:34.256Z,0.40
2022-11-27T11:18:02.655Z,2.53
2022-11-27T11:20:31.009Z,0.77
2022-11-27T11:22:59.656Z,0.60
2022-11-27T11:25:28.083Z,0.30
2022-11-27T11:27:57.847Z,0.60
2022-11-27T11:30:26.682Z,0.60
2022-11-27T11:33:00.447Z,0.37
2022-11-27T11:35:30.366Z,0.50
2022-11-27T11:37:58.966Z,1.50
2022-11-27T11:40:28.030Z,0.33
2022-11-27T11:42:59.022Z,0.97
2022-11-27T11:45:31.338Z,0.30
2022-11-27T11:48:02.115Z,1.43
2022-11-27T11:50:32.138Z,0.40
2022-11-27T11:53:01.764Z,0.60
2022-11-27T11:55:33.450Z,0.60
2022-11-27T11:58:19.802Z,2.10
2022-11-27T12:01:25.825Z,1.13
2022-11-27T12:03:40.385Z,0.63
2022-11-27T12:06:18.745Z,1.43
2022-11-27T12:08:50.763Z,0.80
2022-11-27T12:11:19.696Z,0.50
2022-11-27T12:13:51.428Z,0.57
2022-11-27T12:16:22.721Z,0.57
2022-11-27T12:18:55.653Z,1.70
2022-11-27T12:21:24.815Z,1.13
2022-11-27T12:23:55.771Z,0.67
2022-11-27T12:26:27.400Z,0.50
2022-11-27T12:29:07.809Z,0.50
2022-11-27T12:31:42.901Z,0.43
2022-11-27T12:34:13.797Z,0.50
2022-11-27T12:36:48.497Z,0.63
2022-11-27T12:39:19.198Z,1.50
2022-11-27T12:41:50.786Z,0.30
2022-11-27T12:44:20.603Z,0.70
2022-11-27T12:46:52.543Z,0.67
2022-11-27T12:49:22.187Z,0.40
2022-11-27T12:51:51.065Z,1.80
2022-11-27T12:54:20.236Z,0.60
2022-11-27T12:56:49.536Z,0.37
2022-11-27T12:59:19.350Z,1.00
2022-11-27T13:01:49.029Z,0.67
2022-11-27T13:04:22.258Z,1.30
2022-11-27T13:06:55.119Z,0.57
2022-11-27T13:09:26.672Z,1.67
2022-11-27T13:11:54.999Z,1.60
2022-11-27T13:14:24.012Z,3.30
2022-11-27T13:16:53.429Z,2.63
2022-11-27T13:19:24.880Z,2.77
2022-11-27T13:21:53.514Z,2.67
2022-11-27T13:24:21.934Z,3.00
2022-11-27T13:26:51.440Z,4.17
2022-11-27T13:29:21.727Z,3.37
2022-11-27T13:31:50.557Z,4.40
2022-11-27T13:34:20.171Z,3.87
2022-11-27T13:36:51.496Z,3.07
2022-11-27T13:39:23.733Z,3.47
2022-11-27T13:42:00.373Z,1.73
2022-11-27T13:44:29.077Z,3.43
2022-11-27T13:46:58.526Z,4.37
2022-11-27T13:49:27.312Z,2.30
2022-11-27T13:52:06.933Z,3.17
2022-11-27T13:54:35.503Z,2.97
2022-11-27T13:57:14.025Z,2.30
2022-11-27T13:59:42.630Z,2.10
2022-11-27T14:02:11.117Z,2.50
2022-11-27T14:04:54.325Z,2.37
2022-11-27T14:07:27.722Z,2.50
2022-11-27T14:09:57.689Z,1.83
2022-11-27T14:12:26.641Z,2.37
2022-11-27T14:15:02.664Z,2.63
2022-11-27T14:17:35.866Z,1.70
2022-11-27T14:20:06.437Z,3.90
2022-11-27T14:22:54.012Z,1.97
2022-11-27T14:25:26.370Z,1.90
2022-11-27T14:27:59.999Z,2.23
2022-11-27T14:30:33.139Z,2.70
2022-11-27T14:33:01.517Z,2.20
2022-11-27T14:35:30.033Z,2.93
2022-11-27T14:38:10.733Z,1.97
2022-11-27T14:40:39.235Z,2.63
2022-11-27T14:43:11.333Z,1.83
2022-11-27T14:45:39.642Z,1.80
2022-11-27T14:48:08.615Z,3.00
2022-11-27T14:50:37.036Z,4.40
2022-11-27T14:53:05.357Z,2.30
2022-11-27T14:55:35.262Z,2.80
2022-11-27T14:58:04.102Z,1.97
2022-11-27T15:00:32.522Z,2.87
2022-11-27T15:03:08.982Z,3.17
2022-11-27T15:05:38.418Z,7.30
2022-11-27T15:08:07.594Z,7.07
2022-11-27T15:10:38.405Z,8.13
2022-11-27T15:13:08.000Z,9.80
2022-11-27T15:15:38.328Z,11.07
2022-11-27T15:18:07.215Z,10.53
2022-11-27T15:20:37.436Z,12.77
2022-11-27T15:23:05.846Z,12.00
2022-11-27T15:25:40.065Z,14.07
2022-11-27T15:28:28.811Z,11.97
2022-11-27T15:30:57.427Z,12.07
2022-11-27T15:33:26.999Z,12.97
2022-11-27T15:35:55.723Z,9.83
2022-11-27T15:38:24.351Z,8.37
2022-11-27T15:41:01.964Z,8.67
2022-11-27T15:43:30.585Z,9.00
2022-11-27T15:45:59.052Z,10.97
2022-11-27T15:48:28.383Z,11.33
2022-11-27T15:50:57.123Z,9.93
2022-11-27T15:53:25.453Z,14.87
2022-11-27T15:55:53.840Z,15.67
2022-11-27T15:58:24.092Z,12.87
2022-11-27T16:00:52.671Z,16.07
2022-11-27T16:03:22.560Z,13.50
2022-11-27T16:05:50.996Z,12.77
2022-11-27T16:08:19.590Z,14.03
2022-11-27T16:10:47.918Z,20.30
2022-11-27T16:13:16.416Z,18.43
2022-11-27T16:15:46.452Z,11.70
2022-11-27T16:18:14.799Z,13.77
2022-11-27T16:20:43.312Z,14.87
2022-11-27T16:23:11.728Z,12.17
2022-11-27T16:25:40.331Z,14.63
2022-11-27T16:28:08.951Z,14.67
2022-11-27T16:30:38.559Z,11.13
2022-11-27T16:33:08.347Z,11.70
2022-11-27T16:35:37.707Z,15.13
2022-11-27T16:38:06.391Z,11.20
2022-11-27T16:40:34.931Z,11.67
2022-11-27T16:43:03.694Z,13.23
2022-11-27T16:45:32.607Z,10.90
2022-11-27T16:48:01.100Z,12.07
2022-11-27T16:50:31.313Z,13.50
2022-11-27T16:52:59.724Z,9.47
2022-11-27T16:55:28.732Z,10.50
2022-11-27T16:57:57.316Z,22.13
2022-11-27T17:00:25.817Z,20.23
2022-11-27T17:02:54.458Z,22.70
2022-11-27T17:05:23.015Z,19.83
2022-11-27T17:07:53.015Z,19.20
2022-11-27T17:10:22.234Z,16.00
2022-11-27T17:12:50.781Z,19.73
2022-11-27T17:15:19.687Z,13.47
2022-11-27T17:17:48.267Z,18.63
2022-11-27T17:20:17.177Z,10.07
2022-11-27T17:22:45.948Z,12.13
2022-11-27T17:25:15.760Z,11.07
2022-11-27T17:27:44.131Z,12.80
2022-11-27T17:30:13.089Z,14.10
2022-11-27T17:32:41.625Z,11.83
2022-11-27T17:35:10.425Z,18.60
2022-11-27T17:37:38.916Z,21.83
2022-11-27T17:40:08.495Z,16.73
2022-11-27T17:42:38.263Z,17.83
2022-11-27T17:45:07.501Z,20.00
2022-11-27T17:47:35.995Z,21.40
2022-11-27T17:50:04.734Z,24.43
2022-11-27T17:52:33.382Z,20.17
2022-11-27T17:55:01.814Z,23.97
2022-11-27T17:57:30.209Z,30.60
2022-11-27T18:00:00.084Z,23.17
2022-11-27T18:02:28.449Z,27.10
2022-11-27T18:04:57.121Z,23.67
2022-11-27T18:07:26.036Z,25.90
2022-11-27T18:09:54.674Z,23.63
2022-11-27T18:12:23.172Z,23.70
2022-11-27T18:14:55.402Z,20.30
2022-11-27T18:17:29.744Z,22.07
2022-11-27T18:19:59.217Z,24.43
2022-11-27T18:22:27.839Z,24.47
2022-11-27T18:24:56.390Z,21.90
2022-11-27T18:27:25.146Z,21.27
2022-11-27T18:29:53.435Z,24.53
2022-11-27T18:32:22.934Z,22.43
2022-11-27T18:34:54.709Z,29.20
2022-11-27T18:37:23.664Z,27.13
2022-11-27T18:39:52.358Z,27.63
2022-11-27T18:42:22.721Z,24.50
2022-11-27T18:44:51.244Z,26.37
2022-11-27T18:47:19.565Z,25.37
2022-11-27T18:49:49.027Z,25.20
2022-11-27T18:52:19.260Z,26.23
2022-11-27T18:54:50.534Z,21.57
2022-11-27T18:57:19.818Z,25.97
2022-11-27T18:59:48.391Z,20.27
2022-11-27T19:02:17.582Z,26.83
2022-11-27T19:04:46.958Z,24.40
2022-11-27T19:07:15.585Z,27.00
2022-11-27T19:09:45.428Z,28.07
2022-11-27T19:12:14.768Z,29.17
2022-11-27T19:14:43.490Z,26.43
2022-11-27T19:17:13.102Z,29.70
2022-11-27T19:19:56.948Z,25.20
2022-11-27T19:22:25.562Z,23.13
2022-11-27T19:24:55.687Z,26.00
2022-11-27T19:27:24.334Z,24.40
2022-11-27T19:29:52.975Z,21.40
2022-11-27T19:32:21.467Z,27.50
2022-11-27T19:34:53.123Z,22.70
2022-11-27T19:37:34.035Z,23.93
2022-11-27T19:40:05.089Z,18.73
2022-11-27T19:42:33.676Z,19.40
2022-11-27T19:45:02.023Z,23.57
2022-11-27T19:47:30.460Z,20.50
2022-11-27T19:49:59.384Z,21.33
2022-11-27T19:52:27.722Z,25.80
2022-11-27T19:54:56.049Z,21.40
2022-11-27T19:57:26.600Z,17.50
2022-11-27T19:59:54.916Z,18.67
2022-11-27T20:02:23.314Z,17.67
2022-11-27T20:04:52.235Z,13.60
2022-11-27T20:07:20.964Z,19.90
2022-11-27T20:09:49.298Z,13.97
2022-11-27T20:12:17.772Z,13.37
2022-11-27T20:14:47.490Z,14.17
2022-11-27T20:17:15.916Z,15.67
2022-11-27T20:19:44.676Z,15.83
2022-11-27T20:22:14.601Z,17.50
2022-11-27T20:24:58.498Z,15.40
2022-11-27T20:27:31.674Z,11.87
2022-11-27T20:30:01.580Z,14.60
2022-11-27T20:32:29.923Z,11.50
2022-11-27T20:34:58.263Z,9.03
2022-11-27T20:37:26.651Z,13.07
2022-11-27T20:39:55.069Z,9.83
2022-11-27T20:42:24.450Z,10.53
2022-11-27T20:44:52.893Z,10.83
2022-11-27T20:47:22.746Z,9.43
2022-11-27T20:49:51.140Z,12.67
2022-11-27T20:52:19.766Z,11.27
2022-11-27T20:54:48.247Z,9.50
2022-11-27T20:57:16.750Z,9.40
2022-11-27T20:59:45.228Z,9.40
2022-11-27T21:02:13.738Z,8.73
2022-11-27T21:04:43.992Z,10.27
2022-11-27T21:07:13.934Z,8.83
2022-11-27T21:09:42.626Z,8.80
2022-11-27T21:12:13.283Z,7.07
2022-11-27T21:14:41.761Z,6.13
2022-11-27T21:17:10.191Z,12.00
2022-11-27T21:19:39.249Z,9.33
2022-11-27T21:22:09.275Z,9.13
2022-11-27T21:24:37.642Z,8.77
2022-11-27T21:27:06.240Z,6.87
2022-11-27T21:29:34.853Z,10.47
2022-11-27T21:32:03.788Z,9.93
2022-11-27T21:34:32.382Z,7.50
2022-11-27T21:37:00.710Z,9.40
2022-11-27T21:39:30.662Z,5.50
2022-11-27T21:41:59.095Z,6.00
2022-11-27T21:44:27.511Z,9.23
2022-11-27T21:46:56.107Z,7.23
2022-11-27T21:49:24.679Z,7.13
2022-11-27T21:51:53.607Z,8.17
2022-11-27T21:54:22.373Z,6.93
2022-11-27T21:56:54.205Z,8.90
2022-11-27T21:59:23.425Z,6.23
2022-11-27T22:01:51.851Z,5.87
2022-11-27T22:04:20.497Z,7.57
2022-11-27T22:06:49.006Z,8.23
2022-11-27T22:09:17.389Z,4.17
2022-11-27T22:11:46.132Z,7.20
2022-11-27T22:14:17.178Z,9.17
2022-11-27T22:16:46.941Z,8.37
2022-11-27T22:19:15.841Z,6.73
2022-11-27T22:21:44.486Z,11.10
2022-11-27T22:24:18.238Z,11.00
2022-11-27T22:26:47.687Z,12.53
2022-11-27T22:29:17.776Z,14.20
2022-11-27T22:31:46.274Z,13.90
2022-11-27T22:34:14.663Z,15.77
2022-11-27T22:36:43.508Z,16.90
2022-11-27T22:39:11.957Z,20.33
2022-11-27T22:41:40.739Z,17.10
2022-11-27T22:44:09.800Z,21.60
2022-11-27T22:46:40.681Z,17.37
2022-11-27T22:49:10.005Z,18.70
2022-11-27T22:51:38.413Z,19.93
2022-11-27T22:54:07.448Z,20.10
2022-11-27T22:56:36.660Z,20.00
2022-11-27T22:59:31.180Z,23.40
2022-11-27T23:01:55.971Z,20.10
2022-11-27T23:04:24.691Z,18.93
2022-11-27T23:06:53.235Z,22.70
2022-11-27T23:09:21.683Z,25.30
2022-11-27T23:11:50.220Z,23.93
2022-11-27T23:14:18.807Z,23.07
2022-11-27T23:16:47.317Z,24.87
2022-11-27T23:19:17.113Z,25.57
2022-11-27T23:21:45.601Z,24.17
2022-11-27T23:24:15.385Z,24.13
2022-11-27T23:26:43.899Z,28.00
2022-11-27T23:29:12.847Z,25.03
2022-11-27T23:31:41.634Z,25.60
2022-11-27T23:34:13.709Z,21.27
2022-11-27T23:36:43.532Z,16.87
2022-11-27T23:39:12.853Z,23.73
2022-11-27T23:41:41.586Z,18.70
2022-11-27T23:44:10.045Z,14.77
2022-11-27T23:46:38.566Z,16.03
2022-11-27T23:49:07.210Z,17.20
2022-11-27T23:51:35.565Z,11.50
2022-11-27T23:54:07.983Z,15.87
2022-11-27T23:56:36.724Z,15.93
2022-11-27T23:59:05.088Z,16.10
